sensor_id;sensor_type;location;lat;lon;timestamp;temperature;humidity
13198;DHT22;6664;52.514;13.440;2023-04-25T00:02:41;8.40;21.80
13198;DHT22;6664;52.514;13.440;2023-04-25T00:05:30;8.60;21.80
13198;DHT22;6664;52.514;13.440;2023-04-25T00:08:16;8.60;21.80
13198;DHT22;6664;52.514;13.440;2023-04-25T00:11:02;8.70;20.80
13198;DHT22;6664;52.514;13.440;2023-04-25T00:13:51;8.80;20.50
13198;DHT22;6664;52.514;13.440;2023-04-25T00:16:36;8.80;20.30
13198;DHT22;6664;52.514;13.440;2023-04-25T00:19:29;8.90;19.60
13198;DHT22;6664;52.514;13.440;2023-04-25T00:22:17;8.90;19.50
13198;DHT22;6664;52.514;13.440;2023-04-25T00:25:06;8.90;19.40
13198;DHT22;6664;52.514;13.440;2023-04-25T00:27:52;8.80;19.00
13198;DHT22;6664;52.514;13.440;2023-04-25T00:30:40;8.90;18.90
13198;DHT22;6664;52.514;13.440;2023-04-25T00:33:26;8.90;18.60
13198;DHT22;6664;52.514;13.440;2023-04-25T00:36:11;8.90;18.60
13198;DHT22;6664;52.514;13.440;2023-04-25T00:38:56;8.90;18.40
13198;DHT22;6664;52.514;13.440;2023-04-25T00:41:43;8.90;18.20
13198;DHT22;6664;52.514;13.440;2023-04-25T00:44:29;8.90;18.10
13198;DHT22;6664;52.514;13.440;2023-04-25T00:47:16;8.90;18.30
13198;DHT22;6664;52.514;13.440;2023-04-25T00:50:02;8.90;18.50
13198;DHT22;6664;52.514;13.440;2023-04-25T00:52:50;8.90;18.50
13198;DHT22;6664;52.514;13.440;2023-04-25T00:55:38;8.80;18.60
13198;DHT22;6664;52.514;13.440;2023-04-25T00:58:26;8.80;18.80
13198;DHT22;6664;52.514;13.440;2023-04-25T01:01:12;8.90;18.90
13198;DHT22;6664;52.514;13.440;2023-04-25T01:04:01;8.90;18.70
13198;DHT22;6664;52.514;13.440;2023-04-25T01:06:47;8.80;18.60
13198;DHT22;6664;52.514;13.440;2023-04-25T01:09:33;8.80;18.70
13198;DHT22;6664;52.514;13.440;2023-04-25T01:12:19;8.80;18.90
13198;DHT22;6664;52.514;13.440;2023-04-25T01:15:05;8.90;18.40
13198;DHT22;6664;52.514;13.440;2023-04-25T01:17:50;8.80;18.90
13198;DHT22;6664;52.514;13.440;2023-04-25T01:20:37;8.80;18.80
13198;DHT22;6664;52.514;13.440;2023-04-25T01:23:23;8.80;19.00
13198;DHT22;6664;52.514;13.440;2023-04-25T01:26:10;8.90;18.70
13198;DHT22;6664;52.514;13.440;2023-04-25T01:28:56;8.90;18.50
13198;DHT22;6664;52.514;13.440;2023-04-25T01:31:44;8.90;18.50
13198;DHT22;6664;52.514;13.440;2023-04-25T01:34:30;8.90;18.50
13198;DHT22;6664;52.514;13.440;2023-04-25T01:37:16;8.90;18.20
13198;DHT22;6664;52.514;13.440;2023-04-25T01:40:03;8.90;18.20
13198;DHT22;6664;52.514;13.440;2023-04-25T01:42:51;9.00;18.20
13198;DHT22;6664;52.514;13.440;2023-04-25T01:45:37;9.00;18.00
13198;DHT22;6664;52.514;13.440;2023-04-25T01:48:26;8.90;18.00
13198;DHT22;6664;52.514;13.440;2023-04-25T01:51:12;9.00;18.00
13198;DHT22;6664;52.514;13.440;2023-04-25T01:53:58;9.00;17.70
13198;DHT22;6664;52.514;13.440;2023-04-25T01:56:50;9.00;17.70
13198;DHT22;6664;52.514;13.440;2023-04-25T01:59:37;9.00;17.90
13198;DHT22;6664;52.514;13.440;2023-04-25T02:02:23;9.00;18.00
13198;DHT22;6664;52.514;13.440;2023-04-25T02:05:11;9.00;18.10
13198;DHT22;6664;52.514;13.440;2023-04-25T02:07:56;9.10;17.80
13198;DHT22;6664;52.514;13.440;2023-04-25T02:10:42;9.00;17.70
13198;DHT22;6664;52.514;13.440;2023-04-25T02:13:27;9.10;17.80
13198;DHT22;6664;52.514;13.440;2023-04-25T02:16:13;9.10;17.90
13198;DHT22;6664;52.514;13.440;2023-04-25T02:19:00;9.10;17.70
13198;DHT22;6664;52.514;13.440;2023-04-25T02:21:46;9.00;17.60
13198;DHT22;6664;52.514;13.440;2023-04-25T02:24:31;9.10;17.70
13198;DHT22;6664;52.514;13.440;2023-04-25T02:27:18;9.00;17.70
13198;DHT22;6664;52.514;13.440;2023-04-25T02:30:05;8.90;17.90
13198;DHT22;6664;52.514;13.440;2023-04-25T02:32:51;8.90;18.20
13198;DHT22;6664;52.514;13.440;2023-04-25T02:35:37;8.90;18.00
13198;DHT22;6664;52.514;13.440;2023-04-25T02:38:22;8.90;18.20
13198;DHT22;6664;52.514;13.440;2023-04-25T02:41:10;8.90;18.10
13198;DHT22;6664;52.514;13.440;2023-04-25T02:43:55;8.90;18.30
13198;DHT22;6664;52.514;13.440;2023-04-25T02:46:41;9.00;18.20
13198;DHT22;6664;52.514;13.440;2023-04-25T02:49:27;8.90;18.10
13198;DHT22;6664;52.514;13.440;2023-04-25T02:52:13;8.90;18.30
13198;DHT22;6664;52.514;13.440;2023-04-25T02:55:02;8.90;18.20
13198;DHT22;6664;52.514;13.440;2023-04-25T02:57:48;8.90;18.20
13198;DHT22;6664;52.514;13.440;2023-04-25T03:00:33;9.00;18.10
13198;DHT22;6664;52.514;13.440;2023-04-25T03:03:19;8.90;18.20
13198;DHT22;6664;52.514;13.440;2023-04-25T03:06:07;9.00;18.20
13198;DHT22;6664;52.514;13.440;2023-04-25T03:08:52;8.90;18.10
13198;DHT22;6664;52.514;13.440;2023-04-25T03:11:39;8.90;18.10
13198;DHT22;6664;52.514;13.440;2023-04-25T03:14:27;8.90;18.30
13198;DHT22;6664;52.514;13.440;2023-04-25T03:17:12;8.90;18.20
13198;DHT22;6664;52.514;13.440;2023-04-25T03:19:58;8.80;18.20
13198;DHT22;6664;52.514;13.440;2023-04-25T03:22:43;8.90;18.30
13198;DHT22;6664;52.514;13.440;2023-04-25T03:25:31;8.80;18.40
13198;DHT22;6664;52.514;13.440;2023-04-25T03:28:16;8.70;18.60
13198;DHT22;6664;52.514;13.440;2023-04-25T03:31:02;8.80;18.70
13198;DHT22;6664;52.514;13.440;2023-04-25T03:33:48;8.80;18.40
13198;DHT22;6664;52.514;13.440;2023-04-25T03:36:35;8.90;18.40
13198;DHT22;6664;52.514;13.440;2023-04-25T03:39:20;8.90;18.30
13198;DHT22;6664;52.514;13.440;2023-04-25T03:42:06;8.90;18.40
13198;DHT22;6664;52.514;13.440;2023-04-25T03:44:51;8.90;18.60
13198;DHT22;6664;52.514;13.440;2023-04-25T03:47:39;8.90;18.40
13198;DHT22;6664;52.514;13.440;2023-04-25T03:50:26;8.90;18.40
13198;DHT22;6664;52.514;13.440;2023-04-25T03:53:11;8.90;18.50
13198;DHT22;6664;52.514;13.440;2023-04-25T03:55:57;8.90;18.40
13198;DHT22;6664;52.514;13.440;2023-04-25T03:58:42;9.00;18.70
13198;DHT22;6664;52.514;13.440;2023-04-25T04:01:28;8.90;18.40
13198;DHT22;6664;52.514;13.440;2023-04-25T04:04:14;8.90;18.30
13198;DHT22;6664;52.514;13.440;2023-04-25T04:07:00;9.00;18.30
13198;DHT22;6664;52.514;13.440;2023-04-25T04:09:45;8.80;18.70
13198;DHT22;6664;52.514;13.440;2023-04-25T04:12:34;8.80;18.90
13198;DHT22;6664;52.514;13.440;2023-04-25T04:15:20;8.70;18.80
13198;DHT22;6664;52.514;13.440;2023-04-25T04:18:06;8.80;18.70
13198;DHT22;6664;52.514;13.440;2023-04-25T04:20:51;8.80;18.80
13198;DHT22;6664;52.514;13.440;2023-04-25T04:23:40;8.80;18.80
13198;DHT22;6664;52.514;13.440;2023-04-25T04:26:26;8.80;18.80
13198;DHT22;6664;52.514;13.440;2023-04-25T04:29:11;8.70;18.80
13198;DHT22;6664;52.514;13.440;2023-04-25T04:31:57;8.70;18.70
13198;DHT22;6664;52.514;13.440;2023-04-25T04:34:45;8.80;18.70
13198;DHT22;6664;52.514;13.440;2023-04-25T04:37:36;8.90;18.70
13198;DHT22;6664;52.514;13.440;2023-04-25T04:40:21;8.90;18.30
13198;DHT22;6664;52.514;13.440;2023-04-25T04:43:07;8.90;18.50
13198;DHT22;6664;52.514;13.440;2023-04-25T04:45:56;8.90;18.50
13198;DHT22;6664;52.514;13.440;2023-04-25T04:48:41;9.00;18.40
13198;DHT22;6664;52.514;13.440;2023-04-25T04:51:27;9.10;17.90
13198;DHT22;6664;52.514;13.440;2023-04-25T04:54:13;9.00;17.90
13198;DHT22;6664;52.514;13.440;2023-04-25T04:56:58;9.00;17.90
13198;DHT22;6664;52.514;13.440;2023-04-25T04:59:44;9.10;18.00
13198;DHT22;6664;52.514;13.440;2023-04-25T05:02:30;9.00;17.80
13198;DHT22;6664;52.514;13.440;2023-04-25T05:05:16;9.10;17.70
13198;DHT22;6664;52.514;13.440;2023-04-25T05:08:02;9.10;17.70
13198;DHT22;6664;52.514;13.440;2023-04-25T05:10:50;9.20;17.90
13198;DHT22;6664;52.514;13.440;2023-04-25T05:13:35;9.10;17.70
13198;DHT22;6664;52.514;13.440;2023-04-25T05:16:23;9.20;17.90
13198;DHT22;6664;52.514;13.440;2023-04-25T05:19:09;9.20;17.80
13198;DHT22;6664;52.514;13.440;2023-04-25T05:21:59;9.30;17.80
13198;DHT22;6664;52.514;13.440;2023-04-25T05:24:44;9.20;17.80
13198;DHT22;6664;52.514;13.440;2023-04-25T05:27:33;9.40;17.90
13198;DHT22;6664;52.514;13.440;2023-04-25T05:30:19;9.30;17.80
13198;DHT22;6664;52.514;13.440;2023-04-25T05:33:06;9.40;17.90
13198;DHT22;6664;52.514;13.440;2023-04-25T05:35:54;9.40;17.60
13198;DHT22;6664;52.514;13.440;2023-04-25T05:38:39;9.40;17.60
13198;DHT22;6664;52.514;13.440;2023-04-25T05:41:25;9.40;17.10
13198;DHT22;6664;52.514;13.440;2023-04-25T05:44:10;9.50;17.40
13198;DHT22;6664;52.514;13.440;2023-04-25T05:46:56;9.50;17.50
13198;DHT22;6664;52.514;13.440;2023-04-25T05:49:41;9.50;17.50
13198;DHT22;6664;52.514;13.440;2023-04-25T05:52:27;9.40;17.30
13198;DHT22;6664;52.514;13.440;2023-04-25T05:55:12;9.50;17.30
13198;DHT22;6664;52.514;13.440;2023-04-25T05:57:58;9.50;17.30
13198;DHT22;6664;52.514;13.440;2023-04-25T06:00:46;9.40;17.60
13198;DHT22;6664;52.514;13.440;2023-04-25T06:03:31;9.40;17.90
13198;DHT22;6664;52.514;13.440;2023-04-25T06:06:17;9.30;17.90
13198;DHT22;6664;52.514;13.440;2023-04-25T06:09:05;9.40;17.90
13198;DHT22;6664;52.514;13.440;2023-04-25T06:11:53;9.40;17.90
13198;DHT22;6664;52.514;13.440;2023-04-25T06:14:40;9.40;18.10
13198;DHT22;6664;52.514;13.440;2023-04-25T06:17:26;9.40;17.90
13198;DHT22;6664;52.514;13.440;2023-04-25T06:20:12;9.40;18.90
13198;DHT22;6664;52.514;13.440;2023-04-25T06:23:00;9.60;18.10
13198;DHT22;6664;52.514;13.440;2023-04-25T06:25:45;9.60;18.00
13198;DHT22;6664;52.514;13.440;2023-04-25T06:28:31;9.60;18.00
13198;DHT22;6664;52.514;13.440;2023-04-25T06:31:19;9.80;18.00
13198;DHT22;6664;52.514;13.440;2023-04-25T06:34:05;9.70;18.10
13198;DHT22;6664;52.514;13.440;2023-04-25T06:36:51;9.80;18.10
13198;DHT22;6664;52.514;13.440;2023-04-25T06:39:36;9.70;18.60
13198;DHT22;6664;52.514;13.440;2023-04-25T06:42:25;9.60;18.00
13198;DHT22;6664;52.514;13.440;2023-04-25T06:45:11;9.50;18.60
13198;DHT22;6664;52.514;13.440;2023-04-25T06:47:56;9.40;18.80
13198;DHT22;6664;52.514;13.440;2023-04-25T06:50:42;9.50;18.90
13198;DHT22;6664;52.514;13.440;2023-04-25T06:53:27;9.60;18.70
13198;DHT22;6664;52.514;13.440;2023-04-25T06:56:13;9.50;18.70
13198;DHT22;6664;52.514;13.440;2023-04-25T06:58:58;9.40;18.80
13198;DHT22;6664;52.514;13.440;2023-04-25T07:01:45;9.40;19.30
13198;DHT22;6664;52.514;13.440;2023-04-25T07:04:31;9.40;19.70
13198;DHT22;6664;52.514;13.440;2023-04-25T07:07:17;9.40;19.80
13198;DHT22;6664;52.514;13.440;2023-04-25T07:10:03;9.30;19.30
13198;DHT22;6664;52.514;13.440;2023-04-25T07:12:48;9.30;19.80
13198;DHT22;6664;52.514;13.440;2023-04-25T07:15:34;9.30;19.80
13198;DHT22;6664;52.514;13.440;2023-04-25T07:18:20;9.20;20.10
13198;DHT22;6664;52.514;13.440;2023-04-25T07:21:05;9.20;20.20
13198;DHT22;6664;52.514;13.440;2023-04-25T07:23:51;9.00;20.60
13198;DHT22;6664;52.514;13.440;2023-04-25T07:26:37;8.90;21.50
13198;DHT22;6664;52.514;13.440;2023-04-25T07:29:22;8.80;21.90
13198;DHT22;6664;52.514;13.440;2023-04-25T07:32:08;8.70;21.80
13198;DHT22;6664;52.514;13.440;2023-04-25T07:34:57;9.00;21.30
13198;DHT22;6664;52.514;13.440;2023-04-25T07:37:46;9.10;21.30
13198;DHT22;6664;52.514;13.440;2023-04-25T07:40:31;9.40;20.70
13198;DHT22;6664;52.514;13.440;2023-04-25T07:43:17;9.20;19.30
13198;DHT22;6664;52.514;13.440;2023-04-25T07:46:04;9.10;19.10
13198;DHT22;6664;52.514;13.440;2023-04-25T07:48:50;9.50;18.70
13198;DHT22;6664;52.514;13.440;2023-04-25T07:51:38;10.00;16.00
13198;DHT22;6664;52.514;13.440;2023-04-25T07:54:24;9.70;16.30
13198;DHT22;6664;52.514;13.440;2023-04-25T07:57:10;9.70;15.90
13198;DHT22;6664;52.514;13.440;2023-04-25T07:59:55;9.80;14.80
13198;DHT22;6664;52.514;13.440;2023-04-25T08:02:44;9.70;15.10
13198;DHT22;6664;52.514;13.440;2023-04-25T08:05:32;9.30;15.60
13198;DHT22;6664;52.514;13.440;2023-04-25T08:08:20;9.30;15.90
13198;DHT22;6664;52.514;13.440;2023-04-25T08:11:07;9.50;16.10
13198;DHT22;6664;52.514;13.440;2023-04-25T08:13:53;9.90;14.60
13198;DHT22;6664;52.514;13.440;2023-04-25T08:16:38;10.20;13.20
13198;DHT22;6664;52.514;13.440;2023-04-25T08:19:25;10.30;12.90
13198;DHT22;6664;52.514;13.440;2023-04-25T08:22:11;10.10;12.00
13198;DHT22;6664;52.514;13.440;2023-04-25T08:24:58;9.90;12.30
13198;DHT22;6664;52.514;13.440;2023-04-25T08:27:44;10.00;11.40
13198;DHT22;6664;52.514;13.440;2023-04-25T08:30:29;10.20;11.20
13198;DHT22;6664;52.514;13.440;2023-04-25T08:33:15;10.60;11.50
13198;DHT22;6664;52.514;13.440;2023-04-25T08:36:03;10.60;8.90
13198;DHT22;6664;52.514;13.440;2023-04-25T08:38:50;10.70;9.00
13198;DHT22;6664;52.514;13.440;2023-04-25T08:41:40;10.50;8.30
13198;DHT22;6664;52.514;13.440;2023-04-25T08:44:29;10.30;6.80
13198;DHT22;6664;52.514;13.440;2023-04-25T08:47:20;10.50;7.10
13198;DHT22;6664;52.514;13.440;2023-04-25T08:50:07;10.90;6.90
13198;DHT22;6664;52.514;13.440;2023-04-25T08:52:56;10.70;6.20
13198;DHT22;6664;52.514;13.440;2023-04-25T08:55:46;10.60;5.90
13198;DHT22;6664;52.514;13.440;2023-04-25T08:58:35;10.10;5.60
13198;DHT22;6664;52.514;13.440;2023-04-25T09:01:20;10.40;5.50
13198;DHT22;6664;52.514;13.440;2023-04-25T09:04:06;10.70;4.70
13198;DHT22;6664;52.514;13.440;2023-04-25T09:06:52;10.50;3.80
13198;DHT22;6664;52.514;13.440;2023-04-25T09:09:38;10.00;3.90
13198;DHT22;6664;52.514;13.440;2023-04-25T09:12:27;9.80;5.40
13198;DHT22;6664;52.514;13.440;2023-04-25T09:15:14;9.70;6.10
13198;DHT22;6664;52.514;13.440;2023-04-25T09:18:03;10.10;5.50
13198;DHT22;6664;52.514;13.440;2023-04-25T09:20:48;9.90;5.20
13198;DHT22;6664;52.514;13.440;2023-04-25T09:23:50;10.30;3.30
13198;DHT22;6664;52.514;13.440;2023-04-25T09:26:38;10.60;1.60
13198;DHT22;6664;52.514;13.440;2023-04-25T09:29:34;10.60;1.30
13198;DHT22;6664;52.514;13.440;2023-04-25T09:32:24;10.70;1.20
13198;DHT22;6664;52.514;13.440;2023-04-25T09:35:12;11.10;1.00
13198;DHT22;6664;52.514;13.440;2023-04-25T09:38:18;11.30;1.00
13198;DHT22;6664;52.514;13.440;2023-04-25T09:41:04;11.10;1.00
13198;DHT22;6664;52.514;13.440;2023-04-25T09:43:50;11.10;1.00
13198;DHT22;6664;52.514;13.440;2023-04-25T09:46:36;11.60;1.00
13198;DHT22;6664;52.514;13.440;2023-04-25T09:49:25;12.30;1.00
13198;DHT22;6664;52.514;13.440;2023-04-25T09:52:16;12.30;1.00
13198;DHT22;6664;52.514;13.440;2023-04-25T09:55:05;12.30;1.00
13198;DHT22;6664;52.514;13.440;2023-04-25T09:57:52;12.00;1.00
13198;DHT22;6664;52.514;13.440;2023-04-25T10:00:41;12.20;1.00
13198;DHT22;6664;52.514;13.440;2023-04-25T10:03:26;12.60;1.00
13198;DHT22;6664;52.514;13.440;2023-04-25T10:06:21;12.30;1.00
13198;DHT22;6664;52.514;13.440;2023-04-25T10:09:08;11.90;1.00
13198;DHT22;6664;52.514;13.440;2023-04-25T10:11:54;12.30;1.00
13198;DHT22;6664;52.514;13.440;2023-04-25T10:14:42;12.60;1.00
13198;DHT22;6664;52.514;13.440;2023-04-25T10:17:27;12.10;1.00
13198;DHT22;6664;52.514;13.440;2023-04-25T10:20:14;12.70;1.00
13198;DHT22;6664;52.514;13.440;2023-04-25T10:23:08;12.40;1.00
13198;DHT22;6664;52.514;13.440;2023-04-25T10:25:56;12.80;1.00
13198;DHT22;6664;52.514;13.440;2023-04-25T10:29:00;13.10;1.00
13198;DHT22;6664;52.514;13.440;2023-04-25T10:31:46;12.80;1.00
13198;DHT22;6664;52.514;13.440;2023-04-25T10:34:43;12.90;1.00
13198;DHT22;6664;52.514;13.440;2023-04-25T10:37:31;12.90;1.00
13198;DHT22;6664;52.514;13.440;2023-04-25T10:40:22;12.10;1.00
13198;DHT22;6664;52.514;13.440;2023-04-25T10:43:39;12.30;1.00
13198;DHT22;6664;52.514;13.440;2023-04-25T10:46:27;12.30;1.00
13198;DHT22;6664;52.514;13.440;2023-04-25T10:49:42;12.00;1.00
13198;DHT22;6664;52.514;13.440;2023-04-25T10:52:27;12.00;1.00
13198;DHT22;6664;52.514;13.440;2023-04-25T10:55:14;12.10;1.00
13198;DHT22;6664;52.514;13.440;2023-04-25T10:58:00;12.40;1.00
13198;DHT22;6664;52.514;13.440;2023-04-25T11:00:48;12.20;1.00
13198;DHT22;6664;52.514;13.440;2023-04-25T11:03:41;12.20;1.00
13198;DHT22;6664;52.514;13.440;2023-04-25T11:06:53;12.40;1.00
13198;DHT22;6664;52.514;13.440;2023-04-25T11:09:51;13.40;1.00
13198;DHT22;6664;52.514;13.440;2023-04-25T11:12:36;12.80;1.00
13198;DHT22;6664;52.514;13.440;2023-04-25T11:15:22;13.00;1.00
13198;DHT22;6664;52.514;13.440;2023-04-25T11:18:08;12.30;1.00
13198;DHT22;6664;52.514;13.440;2023-04-25T11:20:56;11.60;1.00
13198;DHT22;6664;52.514;13.440;2023-04-25T11:23:45;11.20;1.00
13198;DHT22;6664;52.514;13.440;2023-04-25T11:26:31;10.80;1.00
13198;DHT22;6664;52.514;13.440;2023-04-25T11:29:19;10.50;1.00
13198;DHT22;6664;52.514;13.440;2023-04-25T11:32:07;10.20;1.00
13198;DHT22;6664;52.514;13.440;2023-04-25T11:34:53;10.50;1.00
13198;DHT22;6664;52.514;13.440;2023-04-25T11:37:42;10.60;1.00
13198;DHT22;6664;52.514;13.440;2023-04-25T11:40:30;10.80;1.00
13198;DHT22;6664;52.514;13.440;2023-04-25T11:43:17;10.70;1.00
13198;DHT22;6664;52.514;13.440;2023-04-25T11:46:09;10.90;1.00
13198;DHT22;6664;52.514;13.440;2023-04-25T11:48:57;11.30;1.00
13198;DHT22;6664;52.514;13.440;2023-04-25T11:51:47;11.40;1.00
13198;DHT22;6664;52.514;13.440;2023-04-25T11:54:36;11.80;1.00
13198;DHT22;6664;52.514;13.440;2023-04-25T11:57:22;12.00;1.00
13198;DHT22;6664;52.514;13.440;2023-04-25T12:00:20;12.10;1.00
13198;DHT22;6664;52.514;13.440;2023-04-25T12:03:11;12.20;1.00
13198;DHT22;6664;52.514;13.440;2023-04-25T12:06:04;12.00;1.00
13198;DHT22;6664;52.514;13.440;2023-04-25T12:09:01;12.40;1.00
13198;DHT22;6664;52.514;13.440;2023-04-25T12:11:53;12.90;1.00
13198;DHT22;6664;52.514;13.440;2023-04-25T12:14:39;13.10;1.00
13198;DHT22;6664;52.514;13.440;2023-04-25T12:17:26;12.40;1.00
13198;DHT22;6664;52.514;13.440;2023-04-25T12:20:18;12.30;1.00
13198;DHT22;6664;52.514;13.440;2023-04-25T12:23:07;11.80;1.00
13198;DHT22;6664;52.514;13.440;2023-04-25T12:25:53;12.10;1.00
13198;DHT22;6664;52.514;13.440;2023-04-25T12:28:38;12.30;1.00
13198;DHT22;6664;52.514;13.440;2023-04-25T12:31:24;12.00;1.00
13198;DHT22;6664;52.514;13.440;2023-04-25T12:34:09;11.90;1.00
13198;DHT22;6664;52.514;13.440;2023-04-25T12:36:55;12.70;1.00
13198;DHT22;6664;52.514;13.440;2023-04-25T12:39:41;13.10;1.00
13198;DHT22;6664;52.514;13.440;2023-04-25T12:42:27;14.00;1.00
13198;DHT22;6664;52.514;13.440;2023-04-25T12:45:14;15.30;1.00
13198;DHT22;6664;52.514;13.440;2023-04-25T12:48:00;15.30;1.00
13198;DHT22;6664;52.514;13.440;2023-04-25T12:50:49;13.20;1.00
13198;DHT22;6664;52.514;13.440;2023-04-25T12:53:36;12.70;1.00
13198;DHT22;6664;52.514;13.440;2023-04-25T12:56:22;12.60;1.00
13198;DHT22;6664;52.514;13.440;2023-04-25T12:59:10;12.70;1.00
13198;DHT22;6664;52.514;13.440;2023-04-25T13:01:57;11.90;1.00
13198;DHT22;6664;52.514;13.440;2023-04-25T13:04:43;11.90;1.00
13198;DHT22;6664;52.514;13.440;2023-04-25T13:07:31;12.40;1.00
13198;DHT22;6664;52.514;13.440;2023-04-25T13:10:20;12.30;1.00
13198;DHT22;6664;52.514;13.440;2023-04-25T13:13:05;12.70;1.00
13198;DHT22;6664;52.514;13.440;2023-04-25T13:15:53;14.60;1.00
13198;DHT22;6664;52.514;13.440;2023-04-25T13:18:38;17.90;1.00
13198;DHT22;6664;52.514;13.440;2023-04-25T13:21:25;24.70;1.00
13198;DHT22;6664;52.514;13.440;2023-04-25T13:24:12;29.80;1.00
13198;DHT22;6664;52.514;13.440;2023-04-25T13:26:57;24.50;1.00
13198;DHT22;6664;52.514;13.440;2023-04-25T13:29:43;23.70;1.00
13198;DHT22;6664;52.514;13.440;2023-04-25T13:32:28;18.30;1.00
13198;DHT22;6664;52.514;13.440;2023-04-25T13:35:14;16.30;1.00
13198;DHT22;6664;52.514;13.440;2023-04-25T13:38:00;15.10;1.00
13198;DHT22;6664;52.514;13.440;2023-04-25T13:40:46;14.50;1.00
13198;DHT22;6664;52.514;13.440;2023-04-25T13:43:34;14.40;1.00
13198;DHT22;6664;52.514;13.440;2023-04-25T13:46:21;13.20;1.00
13198;DHT22;6664;52.514;13.440;2023-04-25T13:49:26;12.40;1.00
13198;DHT22;6664;52.514;13.440;2023-04-25T13:52:12;12.00;1.00
13198;DHT22;6664;52.514;13.440;2023-04-25T13:54:58;12.60;1.00
13198;DHT22;6664;52.514;13.440;2023-04-25T13:57:44;13.30;1.00
13198;DHT22;6664;52.514;13.440;2023-04-25T14:00:33;16.10;1.00
13198;DHT22;6664;52.514;13.440;2023-04-25T14:03:18;15.20;1.00
13198;DHT22;6664;52.514;13.440;2023-04-25T14:06:04;14.10;1.00
13198;DHT22;6664;52.514;13.440;2023-04-25T14:08:53;12.80;1.00
13198;DHT22;6664;52.514;13.440;2023-04-25T14:11:39;12.00;1.00
13198;DHT22;6664;52.514;13.440;2023-04-25T14:14:25;11.80;1.00
13198;DHT22;6664;52.514;13.440;2023-04-25T14:17:10;11.40;1.00
13198;DHT22;6664;52.514;13.440;2023-04-25T14:19:56;11.40;1.00
13198;DHT22;6664;52.514;13.440;2023-04-25T14:22:44;11.60;1.00
13198;DHT22;6664;52.514;13.440;2023-04-25T14:25:31;11.20;1.00
13198;DHT22;6664;52.514;13.440;2023-04-25T14:28:16;11.20;1.00
13198;DHT22;6664;52.514;13.440;2023-04-25T14:31:02;11.00;1.00
13198;DHT22;6664;52.514;13.440;2023-04-25T14:33:48;11.00;1.00
13198;DHT22;6664;52.514;13.440;2023-04-25T14:36:35;11.60;1.00
13198;DHT22;6664;52.514;13.440;2023-04-25T14:39:22;11.60;1.00
13198;DHT22;6664;52.514;13.440;2023-04-25T14:42:07;11.60;1.00
13198;DHT22;6664;52.514;13.440;2023-04-25T14:44:52;12.40;1.00
13198;DHT22;6664;52.514;13.440;2023-04-25T14:47:38;14.40;1.00
13198;DHT22;6664;52.514;13.440;2023-04-25T14:50:23;16.30;1.00
13198;DHT22;6664;52.514;13.440;2023-04-25T14:53:09;15.70;1.00
13198;DHT22;6664;52.514;13.440;2023-04-25T14:55:57;14.00;1.00
13198;DHT22;6664;52.514;13.440;2023-04-25T14:58:45;13.30;1.00
13198;DHT22;6664;52.514;13.440;2023-04-25T15:01:31;12.00;1.00
13198;DHT22;6664;52.514;13.440;2023-04-25T15:04:19;11.20;1.00
13198;DHT22;6664;52.514;13.440;2023-04-25T15:07:05;10.80;1.00
13198;DHT22;6664;52.514;13.440;2023-04-25T15:09:51;10.30;1.00
13198;DHT22;6664;52.514;13.440;2023-04-25T15:12:39;10.30;1.00
13198;DHT22;6664;52.514;13.440;2023-04-25T15:15:26;10.20;1.00
13198;DHT22;6664;52.514;13.440;2023-04-25T15:18:12;10.20;1.00
13198;DHT22;6664;52.514;13.440;2023-04-25T15:20:58;10.30;1.00
13198;DHT22;6664;52.514;13.440;2023-04-25T15:23:43;10.30;1.00
13198;DHT22;6664;52.514;13.440;2023-04-25T15:26:29;10.10;1.00
13198;DHT22;6664;52.514;13.440;2023-04-25T15:29:15;10.80;1.00
13198;DHT22;6664;52.514;13.440;2023-04-25T15:32:00;11.50;1.00
13198;DHT22;6664;52.514;13.440;2023-04-25T15:34:46;11.80;1.00
13198;DHT22;6664;52.514;13.440;2023-04-25T15:37:36;12.30;1.00
13198;DHT22;6664;52.514;13.440;2023-04-25T15:40:24;12.70;1.00
13198;DHT22;6664;52.514;13.440;2023-04-25T15:43:10;13.30;1.00
13198;DHT22;6664;52.514;13.440;2023-04-25T15:46:00;12.70;1.00
13198;DHT22;6664;52.514;13.440;2023-04-25T15:48:49;12.80;1.00
13198;DHT22;6664;52.514;13.440;2023-04-25T15:51:34;12.20;1.00
13198;DHT22;6664;52.514;13.440;2023-04-25T15:54:22;12.60;1.00
13198;DHT22;6664;52.514;13.440;2023-04-25T15:57:07;12.40;1.00
13198;DHT22;6664;52.514;13.440;2023-04-25T16:00:00;12.10;1.00
13198;DHT22;6664;52.514;13.440;2023-04-25T16:02:49;12.50;1.00
13198;DHT22;6664;52.514;13.440;2023-04-25T16:05:35;12.10;1.00
13198;DHT22;6664;52.514;13.440;2023-04-25T16:08:21;11.80;1.00
13198;DHT22;6664;52.514;13.440;2023-04-25T16:11:07;11.40;1.00
13198;DHT22;6664;52.514;13.440;2023-04-25T16:13:54;10.90;1.00
13198;DHT22;6664;52.514;13.440;2023-04-25T16:16:43;11.00;1.00
13198;DHT22;6664;52.514;13.440;2023-04-25T16:19:29;10.70;1.00
13198;DHT22;6664;52.514;13.440;2023-04-25T16:22:17;10.60;1.00
13198;DHT22;6664;52.514;13.440;2023-04-25T16:25:06;10.40;1.00
13198;DHT22;6664;52.514;13.440;2023-04-25T16:27:52;10.20;1.00
13198;DHT22;6664;52.514;13.440;2023-04-25T16:30:37;10.10;1.00
13198;DHT22;6664;52.514;13.440;2023-04-25T16:33:26;10.10;1.00
13198;DHT22;6664;52.514;13.440;2023-04-25T16:36:12;10.10;1.00
13198;DHT22;6664;52.514;13.440;2023-04-25T16:38:57;9.90;1.00
13198;DHT22;6664;52.514;13.440;2023-04-25T16:41:45;9.90;1.00
13198;DHT22;6664;52.514;13.440;2023-04-25T16:44:31;9.90;1.00
13198;DHT22;6664;52.514;13.440;2023-04-25T16:47:17;9.90;1.00
13198;DHT22;6664;52.514;13.440;2023-04-25T16:50:05;9.80;1.00
13198;DHT22;6664;52.514;13.440;2023-04-25T16:52:51;9.90;1.00
13198;DHT22;6664;52.514;13.440;2023-04-25T16:55:39;9.90;1.00
13198;DHT22;6664;52.514;13.440;2023-04-25T16:58:25;10.40;1.00
13198;DHT22;6664;52.514;13.440;2023-04-25T17:01:12;10.70;1.00
13198;DHT22;6664;52.514;13.440;2023-04-25T17:04:01;11.80;1.00
13198;DHT22;6664;52.514;13.440;2023-04-25T17:06:48;12.10;1.00
13198;DHT22;6664;52.514;13.440;2023-04-25T17:09:33;12.10;1.00
13198;DHT22;6664;52.514;13.440;2023-04-25T17:12:20;11.60;1.00
13198;DHT22;6664;52.514;13.440;2023-04-25T17:15:06;11.20;1.00
13198;DHT22;6664;52.514;13.440;2023-04-25T17:17:52;10.90;1.00
13198;DHT22;6664;52.514;13.440;2023-04-25T17:20:37;10.50;1.00
13198;DHT22;6664;52.514;13.440;2023-04-25T17:23:23;10.80;1.00
13198;DHT22;6664;52.514;13.440;2023-04-25T17:26:09;11.20;1.00
13198;DHT22;6664;52.514;13.440;2023-04-25T17:28:56;10.70;1.00
13198;DHT22;6664;52.514;13.440;2023-04-25T17:31:43;10.50;1.00
13198;DHT22;6664;52.514;13.440;2023-04-25T17:34:31;10.10;1.00
13198;DHT22;6664;52.514;13.440;2023-04-25T17:37:17;9.80;1.00
13198;DHT22;6664;52.514;13.440;2023-04-25T17:40:03;9.60;1.00
13198;DHT22;6664;52.514;13.440;2023-04-25T17:42:49;9.50;1.00
13198;DHT22;6664;52.514;13.440;2023-04-25T17:45:35;9.40;1.00
13198;DHT22;6664;52.514;13.440;2023-04-25T17:48:24;9.10;1.00
13198;DHT22;6664;52.514;13.440;2023-04-25T17:51:10;9.00;1.00
13198;DHT22;6664;52.514;13.440;2023-04-25T17:53:57;8.90;1.00
13198;DHT22;6664;52.514;13.440;2023-04-25T17:56:43;8.80;1.00